Terminal Aerodrome Forecast
Issued by NWS Blacksburg, VA

Home | Current Version | Previous Version | Text Only | Print | Product List | Glossary On
Versions: 1 2 3 4 5 6 7 8 9 10 11 12 13 14 15 16 17 18 19 20 21 22 23 24 25
986
FTUS41 KRNK 132340
TAFROA
TAF
KROA 132340Z 1400/1424 31010G18KT P6SM SKC
     FM140600 30005KT P6SM SKC
     FM141200 VRB03KT P6SM OVC250
     FM142100 13004KT P6SM OVC100=

USA.gov is the U.S. government's official web portal to all federal, state and local government web resources and services.